createdAt,value
2023-06-29T00:00:07.237Z,96317.00
2023-06-29T00:02:33.670Z,96316.56
2023-06-29T00:05:00.105Z,96308.19
2023-06-29T00:07:26.573Z,96313.78
2023-06-29T00:09:55.945Z,96314.63
2023-06-29T00:12:22.363Z,96317.97
2023-06-29T00:14:48.711Z,96312.91
2023-06-29T00:17:17.016Z,96310.44
2023-06-29T00:19:43.512Z,96307.88
2023-06-29T00:22:10.238Z,96302.81
2023-06-29T00:24:43.444Z,96306.28
2023-06-29T00:27:13.202Z,96302.09
2023-06-29T00:29:41.400Z,96302.09
2023-06-29T00:32:08.153Z,96304.97
2023-06-29T00:34:34.541Z,96298.97
2023-06-29T00:37:00.992Z,96294.53
2023-06-29T00:39:27.331Z,96294.59
2023-06-29T00:41:57.173Z,96297.03
2023-06-29T00:44:23.590Z,96297.16
2023-06-29T00:46:50.712Z,96297.53
2023-06-29T00:49:17.596Z,96297.91
2023-06-29T00:51:48.033Z,96289.75
2023-06-29T00:54:14.496Z,96283.78
2023-06-29T00:56:42.953Z,96286.84
2023-06-29T00:59:09.340Z,96284.09
2023-06-29T01:01:36.004Z,96276.03
2023-06-29T01:04:02.526Z,96269.47
2023-06-29T01:06:32.482Z,96276.28
2023-06-29T01:09:06.619Z,96275.81
2023-06-29T01:11:34.479Z,96268.09
2023-06-29T01:14:02.246Z,96263.41
2023-06-29T01:16:34.011Z,96262.72
2023-06-29T01:19:10.366Z,96254.53
2023-06-29T01:21:40.265Z,96247.00
2023-06-29T01:24:07.092Z,96250.44
2023-06-29T01:26:33.451Z,96248.97
2023-06-29T01:29:00.727Z,96248.97
2023-06-29T01:31:28.290Z,96247.34
2023-06-29T01:33:54.958Z,96231.28
2023-06-29T01:36:25.784Z,96249.91
2023-06-29T01:39:15.465Z,96243.06
2023-06-29T01:41:43.277Z,96235.50
2023-06-29T01:44:12.614Z,96235.94
2023-06-29T01:46:40.450Z,96241.53
2023-06-29T01:49:07.435Z,96232.84
2023-06-29T01:51:33.880Z,96233.78
2023-06-29T01:54:00.405Z,96235.09
2023-06-29T01:56:26.775Z,96232.78
2023-06-29T01:58:53.135Z,96230.09
2023-06-29T02:01:19.539Z,96231.06
2023-06-29T02:03:46.100Z,96230.41
2023-06-29T02:06:12.606Z,96227.97
2023-06-29T02:08:39.956Z,96225.09
2023-06-29T02:11:06.346Z,96227.63
2023-06-29T02:13:32.731Z,96225.91
2023-06-29T02:15:59.182Z,96228.78
2023-06-29T02:18:25.581Z,96230.53
2023-06-29T02:20:52.293Z,96232.94
2023-06-29T02:23:18.748Z,96237.44
2023-06-29T02:25:45.305Z,96235.56
2023-06-29T02:28:11.868Z,96234.16
2023-06-29T02:30:38.221Z,96235.28
2023-06-29T02:33:04.680Z,96234.00
2023-06-29T02:35:31.069Z,96224.50
2023-06-29T02:37:57.480Z,96219.53
2023-06-29T02:40:23.817Z,96236.53
2023-06-29T02:42:50.216Z,96234.88
2023-06-29T02:45:16.771Z,96240.06
2023-06-29T02:47:43.208Z,96238.34
2023-06-29T02:50:09.954Z,96237.91
2023-06-29T02:52:36.313Z,96241.75
2023-06-29T02:55:02.769Z,96241.25
2023-06-29T02:57:29.215Z,96236.44
2023-06-29T02:59:55.563Z,96239.81
2023-06-29T03:02:21.960Z,96238.38
2023-06-29T03:04:48.393Z,96233.72
2023-06-29T03:07:14.926Z,96239.50
2023-06-29T03:09:41.307Z,96237.72
2023-06-29T03:12:09.818Z,96238.06
2023-06-29T03:14:36.143Z,96239.50
2023-06-29T03:17:02.624Z,96240.19
2023-06-29T03:19:28.965Z,96238.59
2023-06-29T03:21:55.399Z,96244.66
2023-06-29T03:24:21.730Z,96244.38
2023-06-29T03:26:48.117Z,96241.28
2023-06-29T03:29:14.449Z,96243.22
2023-06-29T03:31:40.913Z,96244.03
2023-06-29T03:34:07.255Z,96243.72
2023-06-29T03:36:33.615Z,96240.19
2023-06-29T03:38:59.969Z,96246.94
2023-06-29T03:41:26.322Z,96244.38
2023-06-29T03:43:52.658Z,96232.50
2023-06-29T03:46:19.037Z,96239.56
2023-06-29T03:48:45.412Z,96234.59
2023-06-29T03:51:11.827Z,96228.84
2023-06-29T03:53:38.210Z,96234.41
2023-06-29T03:56:04.812Z,96226.75
2023-06-29T03:58:31.200Z,96234.91
2023-06-29T04:00:57.638Z,96234.28
2023-06-29T04:03:24.064Z,96227.38
2023-06-29T04:05:50.483Z,96226.59
2023-06-29T04:08:16.834Z,96227.38
2023-06-29T04:10:43.235Z,96229.03
2023-06-29T04:13:09.673Z,96231.56
2023-06-29T04:15:36.407Z,96234.13
2023-06-29T04:18:03.008Z,96229.16
2023-06-29T04:20:30.087Z,96224.22
2023-06-29T04:22:56.907Z,96221.50
2023-06-29T04:25:23.235Z,96217.13
2023-06-29T04:27:49.635Z,96217.56
2023-06-29T04:30:18.876Z,96226.38
2023-06-29T04:32:45.648Z,96220.75
2023-06-29T04:35:12.977Z,96219.47
2023-06-29T04:37:42.680Z,96221.84
2023-06-29T04:40:10.671Z,96223.81
2023-06-29T04:42:45.072Z,96234.84
2023-06-29T04:45:19.273Z,96225.13
2023-06-29T04:47:46.622Z,96217.09
2023-06-29T04:50:13.434Z,96225.22
2023-06-29T04:52:39.839Z,96225.81
2023-06-29T04:55:06.280Z,96213.00
2023-06-29T04:57:32.603Z,96214.09
2023-06-29T04:59:58.998Z,96226.28
2023-06-29T05:02:25.991Z,96220.84
2023-06-29T05:04:52.472Z,96213.78
2023-06-29T05:07:18.913Z,96219.69
2023-06-29T05:09:45.278Z,96210.88
2023-06-29T05:12:11.695Z,96211.13
2023-06-29T05:14:38.068Z,96210.78
2023-06-29T05:17:05.374Z,96212.69
2023-06-29T05:19:33.105Z,96208.81
2023-06-29T05:21:59.568Z,96205.47
2023-06-29T05:24:26.462Z,96213.13
2023-06-29T05:26:52.877Z,96215.03
2023-06-29T05:29:19.274Z,96212.31
2023-06-29T05:31:45.830Z,96205.59
2023-06-29T05:34:12.248Z,96209.94
2023-06-29T05:36:38.600Z,96205.59
2023-06-29T05:39:06.180Z,96211.00
2023-06-29T05:41:32.528Z,96209.53
2023-06-29T05:43:58.981Z,96209.88
2023-06-29T05:46:25.415Z,96200.47
2023-06-29T05:48:51.927Z,96199.63
2023-06-29T05:51:18.337Z,96196.56
2023-06-29T05:53:44.677Z,96207.13
2023-06-29T05:56:11.025Z,96203.41
2023-06-29T05:58:37.363Z,96205.53
2023-06-29T06:01:06.724Z,96203.53
2023-06-29T06:03:34.245Z,96204.22
2023-06-29T06:06:00.636Z,96206.59
2023-06-29T06:08:27.145Z,96206.69
2023-06-29T06:10:53.542Z,96208.72
2023-06-29T06:13:20.132Z,96210.56
2023-06-29T06:15:46.669Z,96210.56
2023-06-29T06:18:13.092Z,96204.09
2023-06-29T06:20:39.589Z,96200.28
2023-06-29T06:23:05.992Z,96194.94
2023-06-29T06:25:32.374Z,96191.31
2023-06-29T06:27:58.781Z,96187.38
2023-06-29T06:30:25.289Z,96188.34
2023-06-29T06:32:51.838Z,96193.75
2023-06-29T06:35:18.294Z,96191.69
2023-06-29T06:37:44.761Z,96193.97
2023-06-29T06:40:11.883Z,96187.63
2023-06-29T06:42:39.591Z,96183.91
2023-06-29T06:45:07.104Z,96189.28
2023-06-29T06:47:34.131Z,96175.72
2023-06-29T06:50:00.926Z,96185.03
2023-06-29T06:52:27.433Z,96176.91
2023-06-29T06:54:54.050Z,96166.53
2023-06-29T06:57:20.551Z,96172.38
2023-06-29T06:59:46.955Z,96161.22
2023-06-29T07:02:13.601Z,96162.22
2023-06-29T07:04:40.087Z,96166.31
2023-06-29T07:07:07.353Z,96171.50
2023-06-29T07:09:33.779Z,96174.00
2023-06-29T07:12:00.498Z,96175.16
2023-06-29T07:14:27.063Z,96172.94
2023-06-29T07:16:53.567Z,96172.84
2023-06-29T07:24:20.560Z,96177.94
2023-06-29T07:26:46.952Z,96177.19
2023-06-29T07:29:13.924Z,96171.75
2023-06-29T07:31:40.814Z,96160.06
2023-06-29T07:34:07.148Z,96166.81
2023-06-29T07:36:38.576Z,96156.78
2023-06-29T07:39:05.299Z,96156.00
2023-06-29T07:41:32.923Z,96155.06
2023-06-29T07:44:00.991Z,96164.84
2023-06-29T07:46:27.405Z,96158.34
2023-06-29T07:48:54.584Z,96159.34
2023-06-29T07:51:22.843Z,96154.72
2023-06-29T07:53:49.405Z,96160.06
2023-06-29T07:56:15.968Z,96159.88
2023-06-29T07:58:42.712Z,96148.81
2023-06-29T08:01:09.415Z,96149.22
2023-06-29T08:03:50.993Z,96145.84
2023-06-29T08:08:52.448Z,96149.44
2023-06-29T08:11:19.008Z,96144.84
2023-06-29T08:13:45.470Z,96153.41
2023-06-29T08:16:11.924Z,96134.72
2023-06-29T08:18:38.370Z,96139.78
2023-06-29T08:21:04.970Z,96132.03
2023-06-29T08:23:34.571Z,96127.97
2023-06-29T08:26:00.984Z,96133.00
2023-06-29T08:28:27.364Z,96136.06
2023-06-29T08:30:53.865Z,96123.75
2023-06-29T08:33:20.326Z,96122.31
2023-06-29T08:35:46.900Z,96117.66
2023-06-29T08:38:13.324Z,96114.19
2023-06-29T08:40:40.234Z,96124.00
2023-06-29T08:43:06.689Z,96112.09
2023-06-29T08:45:33.068Z,96120.66
2023-06-29T08:48:00.181Z,96121.28
2023-06-29T08:50:27.617Z,96106.47
2023-06-29T08:52:54.094Z,96107.53
2023-06-29T08:55:20.888Z,96100.47
2023-06-29T08:57:47.449Z,96090.34
2023-06-29T09:00:14.420Z,96102.09
2023-06-29T09:02:40.900Z,96095.34
2023-06-29T09:05:07.993Z,96097.38
2023-06-29T09:07:35.415Z,96096.16
2023-06-29T09:10:05.479Z,96093.06
2023-06-29T09:12:31.820Z,96096.72
2023-06-29T09:14:59.489Z,96090.84
2023-06-29T09:17:27.730Z,96089.69
2023-06-29T09:19:55.954Z,96091.03
2023-06-29T09:22:22.752Z,96086.25
2023-06-29T09:25:03.000Z,96086.56
2023-06-29T09:27:34.244Z,96093.22
2023-06-29T09:30:01.588Z,96101.38
2023-06-29T09:32:31.208Z,96092.19
2023-06-29T09:35:05.792Z,96093.44
2023-06-29T09:37:32.156Z,96084.28
2023-06-29T09:40:02.662Z,96100.56
2023-06-29T09:42:34.738Z,96091.25
2023-06-29T09:45:02.296Z,96098.59
2023-06-29T09:49:58.892Z,96085.22
2023-06-29T09:52:25.297Z,96087.44
2023-06-29T09:54:56.943Z,96083.25
2023-06-29T09:57:23.755Z,96083.03
2023-06-29T09:59:50.812Z,96076.97
2023-06-29T10:02:19.191Z,96069.66
2023-06-29T10:04:46.412Z,96071.66
2023-06-29T10:07:16.531Z,96067.19
2023-06-29T10:09:46.628Z,96062.00
2023-06-29T10:12:13.421Z,96062.38
2023-06-29T10:14:40.460Z,96058.06
2023-06-29T10:17:09.073Z,96055.38
2023-06-29T10:19:37.951Z,96063.88
2023-06-29T10:22:06.522Z,96064.69
2023-06-29T10:24:44.658Z,96063.59
2023-06-29T10:27:11.607Z,96053.88
2023-06-29T10:29:45.274Z,96046.38
2023-06-29T10:32:29.113Z,96041.97
2023-06-29T10:35:04.027Z,96046.00
2023-06-29T10:37:34.086Z,96049.81
2023-06-29T10:40:00.823Z,96048.66
2023-06-29T10:42:27.378Z,96047.53
2023-06-29T10:44:53.783Z,96047.81
2023-06-29T10:47:29.513Z,96046.97
2023-06-29T10:50:11.091Z,96033.50
2023-06-29T10:52:37.886Z,96033.78
2023-06-29T10:55:14.449Z,96032.81
2023-06-29T10:57:40.946Z,96026.81
2023-06-29T11:00:07.662Z,96027.16
2023-06-29T11:02:34.848Z,96019.50
2023-06-29T11:05:01.393Z,96021.19
2023-06-29T11:07:28.227Z,96021.56
2023-06-29T11:10:01.160Z,96011.03
2023-06-29T11:12:27.606Z,96007.78
2023-06-29T11:15:14.019Z,96002.91
2023-06-29T11:17:42.108Z,96005.75
2023-06-29T11:20:11.928Z,95999.38
2023-06-29T11:22:38.293Z,95999.41
2023-06-29T11:25:05.518Z,95996.03
2023-06-29T11:27:32.066Z,95984.88
2023-06-29T11:29:58.675Z,95988.16
2023-06-29T11:32:27.460Z,95987.66
2023-06-29T11:35:01.076Z,95994.66
2023-06-29T11:37:30.809Z,95981.88
2023-06-29T11:39:57.500Z,95978.00
2023-06-29T11:42:25.881Z,95978.09
2023-06-29T11:45:10.830Z,95973.47
2023-06-29T11:47:37.767Z,95967.09
2023-06-29T11:50:08.421Z,95965.47
2023-06-29T11:52:35.709Z,95958.47
2023-06-29T11:55:07.232Z,95959.16
2023-06-29T11:57:34.339Z,95960.13
2023-06-29T12:00:04.714Z,95948.44
2023-06-29T12:02:31.210Z,95951.06
2023-06-29T12:04:58.581Z,95947.47
2023-06-29T12:07:41.607Z,95944.03
2023-06-29T12:10:12.426Z,95939.00
2023-06-29T12:12:46.851Z,95933.03
2023-06-29T12:15:16.856Z,95930.53
2023-06-29T12:20:13.547Z,95925.22
2023-06-29T12:22:40.284Z,95914.09
2023-06-29T12:25:09.418Z,95911.75
2023-06-29T12:27:35.847Z,95920.97
2023-06-29T12:30:02.734Z,95911.81
2023-06-29T12:32:29.088Z,95904.66
2023-06-29T12:34:55.568Z,95905.22
2023-06-29T12:37:21.901Z,95909.19
2023-06-29T12:39:49.546Z,95903.66
2023-06-29T12:42:16.028Z,95896.63
2023-06-29T12:44:42.500Z,95897.25
2023-06-29T12:47:08.921Z,95906.47
2023-06-29T12:49:35.646Z,95893.88
2023-06-29T12:52:04.456Z,95889.22
2023-06-29T12:54:32.093Z,95894.75
2023-06-29T12:56:58.634Z,95889.03
2023-06-29T12:59:24.998Z,95879.44
2023-06-29T13:01:51.430Z,95877.72
2023-06-29T13:04:17.963Z,95878.78
2023-06-29T13:06:44.423Z,95888.47
2023-06-29T13:09:10.842Z,95873.50
2023-06-29T13:11:37.633Z,95884.34
2023-06-29T13:14:03.983Z,95880.03
2023-06-29T13:16:33.270Z,95878.06
2023-06-29T13:19:01.497Z,95861.19
2023-06-29T13:21:28.073Z,95866.53
2023-06-29T13:23:54.488Z,95855.75
2023-06-29T13:26:20.940Z,95864.06
2023-06-29T13:28:47.318Z,95862.41
2023-06-29T13:31:13.816Z,95865.13
2023-06-29T13:33:40.254Z,95866.41
2023-06-29T13:36:06.692Z,95858.47
2023-06-29T13:38:33.205Z,95856.19
2023-06-29T13:40:59.713Z,95858.38
2023-06-29T13:43:26.066Z,95849.56
2023-06-29T13:45:52.774Z,95846.22
2023-06-29T13:48:20.726Z,95849.59
2023-06-29T13:50:47.358Z,95851.69
2023-06-29T13:53:15.645Z,95849.06
2023-06-29T13:55:44.809Z,95847.38
2023-06-29T13:58:11.984Z,95841.66
2023-06-29T14:00:38.474Z,95846.53
2023-06-29T14:03:05.417Z,95841.66
2023-06-29T14:05:32.249Z,95847.31
2023-06-29T14:07:58.842Z,95848.34
2023-06-29T14:10:25.641Z,95849.31
2023-06-29T14:12:52.269Z,95859.47
2023-06-29T14:15:18.705Z,95852.94
2023-06-29T14:17:45.123Z,95847.81
2023-06-29T14:20:11.722Z,95844.28
2023-06-29T14:22:38.052Z,95848.69
2023-06-29T14:25:04.923Z,95843.28
2023-06-29T14:27:31.361Z,95847.91
2023-06-29T14:29:57.696Z,95858.53
2023-06-29T14:32:24.283Z,95858.00
2023-06-29T14:34:51.738Z,95872.47
2023-06-29T14:37:18.183Z,95867.63
2023-06-29T14:39:44.826Z,95868.78
2023-06-29T14:42:11.202Z,95875.56
2023-06-29T14:44:37.547Z,95884.91
2023-06-29T14:47:04.225Z,95898.38
2023-06-29T14:49:30.556Z,95896.56
2023-06-29T14:51:56.982Z,95908.84
2023-06-29T14:54:23.427Z,95910.59
2023-06-29T14:56:49.838Z,95925.44
2023-06-29T14:59:16.430Z,95919.91
2023-06-29T15:01:43.069Z,95931.47
2023-06-29T15:04:09.627Z,95939.47
2023-06-29T15:06:36.016Z,95948.41
2023-06-29T15:09:03.231Z,95954.47
2023-06-29T15:11:29.601Z,95969.94
2023-06-29T15:13:56.062Z,95974.78
2023-06-29T15:16:22.502Z,95985.72
2023-06-29T15:18:59.162Z,96002.97
2023-06-29T15:21:27.144Z,95994.22
2023-06-29T15:23:53.721Z,96016.91
2023-06-29T15:26:20.163Z,96018.50
2023-06-29T15:28:46.520Z,96023.06
2023-06-29T15:31:12.972Z,96022.84
2023-06-29T15:33:39.404Z,96022.00
2023-06-29T15:36:05.815Z,96032.84
2023-06-29T15:38:32.375Z,96040.53
2023-06-29T15:40:58.775Z,96044.41
2023-06-29T15:43:25.146Z,96059.69
2023-06-29T15:45:51.581Z,96058.03
2023-06-29T15:48:18.185Z,96065.81
2023-06-29T15:50:45.599Z,96078.44
2023-06-29T15:53:14.364Z,96073.91
2023-06-29T15:55:40.896Z,96079.94
2023-06-29T15:58:07.321Z,96078.41
2023-06-29T16:00:33.743Z,96074.66
2023-06-29T16:03:00.202Z,96069.38
2023-06-29T16:05:26.668Z,96066.34
2023-06-29T16:07:54.091Z,96069.56
2023-06-29T16:10:20.501Z,96070.97
2023-06-29T16:12:46.869Z,96071.50
2023-06-29T16:15:13.228Z,96082.31
2023-06-29T16:17:39.717Z,96091.59
2023-06-29T16:20:06.396Z,96109.31
2023-06-29T16:22:34.168Z,96125.72
2023-06-29T16:25:00.784Z,96132.59
2023-06-29T16:27:27.316Z,96138.44
2023-06-29T16:29:53.845Z,96147.66
2023-06-29T16:32:20.363Z,96149.31
2023-06-29T16:34:47.598Z,96145.06
2023-06-29T16:37:14.252Z,96148.16
2023-06-29T16:39:40.788Z,96157.66
2023-06-29T16:42:07.926Z,96168.44
2023-06-29T16:44:34.318Z,96159.81
2023-06-29T16:47:01.450Z,96162.94
2023-06-29T16:49:28.203Z,96170.56
2023-06-29T16:51:55.827Z,96168.63
2023-06-29T16:54:22.446Z,96173.28
2023-06-29T16:56:49.133Z,96179.84
2023-06-29T16:59:15.526Z,96182.00
2023-06-29T17:01:41.933Z,96189.91
2023-06-29T17:04:08.494Z,96188.84
2023-06-29T17:06:36.820Z,96188.84
2023-06-29T17:09:03.234Z,96188.09
2023-06-29T17:11:29.598Z,96190.06
2023-06-29T17:13:57.359Z,96205.59
2023-06-29T17:16:23.853Z,96208.47
2023-06-29T17:18:50.354Z,96208.91
2023-06-29T17:21:18.380Z,96214.75
2023-06-29T17:23:44.709Z,96216.28
2023-06-29T17:26:11.173Z,96227.16
2023-06-29T17:28:37.601Z,96224.69
2023-06-29T17:31:03.983Z,96223.78
2023-06-29T17:33:37.934Z,96218.56
2023-06-29T17:36:11.691Z,96212.09
2023-06-29T17:38:38.076Z,96220.19
2023-06-29T17:41:04.444Z,96225.13
2023-06-29T17:43:30.815Z,96232.09
2023-06-29T17:45:57.208Z,96230.22
2023-06-29T17:48:23.629Z,96245.31
2023-06-29T17:50:50.695Z,96236.84
2023-06-29T17:53:17.083Z,96234.66
2023-06-29T17:55:43.741Z,96235.66
2023-06-29T17:58:10.373Z,96231.50
2023-06-29T18:00:36.883Z,96237.28
2023-06-29T18:03:03.301Z,96242.75
2023-06-29T18:05:29.682Z,96236.06
2023-06-29T18:07:56.108Z,96239.22
2023-06-29T18:10:22.489Z,96243.97
2023-06-29T18:12:48.856Z,96237.94
2023-06-29T18:15:15.226Z,96237.00
2023-06-29T18:17:41.605Z,96240.13
2023-06-29T18:20:08.517Z,96233.38
2023-06-29T18:22:35.352Z,96234.00
2023-06-29T18:25:01.884Z,96235.88
2023-06-29T18:27:28.728Z,96226.47
2023-06-29T18:29:55.213Z,96221.25
2023-06-29T18:32:21.615Z,96220.16
2023-06-29T18:34:48.403Z,96219.13
2023-06-29T18:37:15.236Z,96202.88
2023-06-29T18:39:42.081Z,96193.69
2023-06-29T18:42:08.585Z,96184.84
2023-06-29T18:44:35.151Z,96189.81
2023-06-29T18:47:06.976Z,96192.06
2023-06-29T18:49:49.857Z,96190.63
2023-06-29T18:52:18.492Z,96201.75
2023-06-29T18:54:44.894Z,96201.75
2023-06-29T18:57:11.644Z,96210.81
2023-06-29T18:59:39.252Z,96198.06
2023-06-29T19:02:05.921Z,96196.97
2023-06-29T19:04:32.519Z,96196.91
2023-06-29T19:06:59.110Z,96204.81
2023-06-29T19:09:25.471Z,96187.22
2023-06-29T19:11:51.981Z,96183.63
2023-06-29T19:14:18.408Z,96190.22
2023-06-29T19:16:44.811Z,96195.78
2023-06-29T19:19:11.321Z,96200.75
2023-06-29T19:21:47.663Z,96197.84
2023-06-29T19:24:16.288Z,96196.47
2023-06-29T19:26:42.746Z,96194.13
2023-06-29T19:29:09.251Z,96194.66
2023-06-29T19:31:35.664Z,96193.81
2023-06-29T19:34:03.335Z,96193.81
2023-06-29T19:36:31.220Z,96201.94
2023-06-29T19:38:57.659Z,96205.97
2023-06-29T19:41:24.036Z,96212.44
2023-06-29T19:43:50.608Z,96211.81
2023-06-29T19:46:17.050Z,96209.09
2023-06-29T19:48:43.503Z,96210.81
2023-06-29T19:51:09.843Z,96211.16
2023-06-29T19:53:36.302Z,96208.72
2023-06-29T19:56:03.352Z,96209.03
2023-06-29T19:58:29.755Z,96216.81
2023-06-29T20:00:56.817Z,96219.97
2023-06-29T20:03:23.342Z,96220.00
2023-06-29T20:05:50.141Z,96216.59
2023-06-29T20:08:16.914Z,96208.94
2023-06-29T20:10:43.489Z,96206.44
2023-06-29T20:13:10.356Z,96195.13
2023-06-29T20:15:37.311Z,96203.75
2023-06-29T20:18:03.708Z,96192.16
2023-06-29T20:20:30.427Z,96194.56
2023-06-29T20:22:56.773Z,96203.22
2023-06-29T20:25:23.241Z,96207.22
2023-06-29T20:27:49.652Z,96207.53
2023-06-29T20:30:16.616Z,96211.59
2023-06-29T20:32:43.014Z,96210.69
2023-06-29T20:35:09.448Z,96218.25
2023-06-29T20:37:35.788Z,96220.97
2023-06-29T20:40:02.199Z,96220.53
2023-06-29T20:42:28.562Z,96221.25
2023-06-29T20:44:57.575Z,96216.38
2023-06-29T20:47:25.851Z,96211.25
2023-06-29T20:49:52.214Z,96217.41
2023-06-29T20:52:18.899Z,96220.75
2023-06-29T20:54:45.336Z,96222.59
2023-06-29T20:57:11.769Z,96222.34
2023-06-29T20:59:38.150Z,96205.13
2023-06-29T21:02:04.648Z,96213.50
2023-06-29T21:04:33.148Z,96210.88
2023-06-29T21:06:59.616Z,96213.78
2023-06-29T21:09:26.054Z,96217.00
2023-06-29T21:11:52.866Z,96206.38
2023-06-29T21:14:19.400Z,96201.00
2023-06-29T21:16:46.176Z,96201.59
2023-06-29T21:19:12.748Z,96194.56
2023-06-29T21:21:39.278Z,96192.00
2023-06-29T21:24:05.870Z,96192.59
2023-06-29T21:26:32.361Z,96183.34
2023-06-29T21:29:01.073Z,96186.06
2023-06-29T21:31:29.746Z,96182.34
2023-06-29T21:33:56.245Z,96179.81
2023-06-29T21:36:22.722Z,96171.69
2023-06-29T21:38:51.195Z,96181.19
2023-06-29T21:41:17.758Z,96182.50
2023-06-29T21:43:44.338Z,96176.16
2023-06-29T21:46:10.725Z,96173.63
2023-06-29T21:48:39.586Z,96158.25
2023-06-29T21:51:07.012Z,96150.84
2023-06-29T21:53:33.407Z,96154.28
2023-06-29T21:56:10.245Z,96154.44
2023-06-29T21:58:43.381Z,96147.63
2023-06-29T22:01:09.726Z,96160.69
2023-06-29T22:03:36.191Z,96149.19
2023-06-29T22:06:02.638Z,96149.16
2023-06-29T22:08:29.050Z,96149.75
2023-06-29T22:10:55.449Z,96141.56
2023-06-29T22:13:24.340Z,96138.25
2023-06-29T22:15:53.467Z,96135.00
2023-06-29T22:18:20.134Z,96124.59
2023-06-29T22:20:46.675Z,96123.50
2023-06-29T22:23:13.134Z,96115.31
2023-06-29T22:25:39.506Z,96114.34
2023-06-29T22:28:07.897Z,96115.94
2023-06-29T22:30:34.308Z,96107.63
2023-06-29T22:33:00.729Z,96111.38
2023-06-29T22:35:27.214Z,96098.53
2023-06-29T22:37:53.621Z,96089.25
2023-06-29T22:40:20.079Z,96085.53
2023-06-29T22:42:46.601Z,96078.59
2023-06-29T22:45:13.399Z,96079.84
2023-06-29T22:47:39.791Z,96075.13
2023-06-29T22:50:07.152Z,96057.88
2023-06-29T22:52:33.539Z,96063.69
2023-06-29T22:54:59.888Z,96066.47
2023-06-29T22:57:26.316Z,96069.91
2023-06-29T22:59:54.620Z,96066.34
2023-06-29T23:02:21.076Z,96058.09
2023-06-29T23:04:47.727Z,96067.34
2023-06-29T23:07:14.437Z,96052.75
2023-06-29T23:09:40.826Z,96049.78
2023-06-29T23:12:07.549Z,96050.34
2023-06-29T23:14:34.317Z,96058.66
2023-06-29T23:17:04.165Z,96048.44
2023-06-29T23:19:30.976Z,96054.53
2023-06-29T23:21:57.856Z,96052.69
2023-06-29T23:24:24.234Z,96055.34
2023-06-29T23:26:50.784Z,96053.25
2023-06-29T23:29:17.176Z,96057.16
2023-06-29T23:31:43.845Z,96060.69
2023-06-29T23:34:10.312Z,96064.31
2023-06-29T23:36:36.673Z,96059.09
2023-06-29T23:39:03.596Z,96053.97
2023-06-29T23:41:30.011Z,96058.41
2023-06-29T23:44:05.632Z,96054.25
2023-06-29T23:46:45.718Z,96059.38
2023-06-29T23:49:13.756Z,96061.88
2023-06-29T23:51:41.202Z,96059.03
2023-06-29T23:54:08.499Z,96055.56
2023-06-29T23:56:34.961Z,96046.38
2023-06-29T23:59:01.585Z,96043.81
